sensor_id;sensor_type;location;lat;lon;timestamp;P1;durP1;ratioP1;P2;durP2;ratioP2
36009;SDS011;22076;52.182;5.404;2023-07-31T00:01:16;2.97;;;1.10;;
36009;SDS011;22076;52.182;5.404;2023-07-31T00:03:42;4.68;;;1.00;;
36009;SDS011;22076;52.182;5.404;2023-07-31T00:06:09;1.92;;;0.75;;
36009;SDS011;22076;52.182;5.404;2023-07-31T00:08:35;3.15;;;1.10;;
36009;SDS011;22076;52.182;5.404;2023-07-31T00:11:03;2.50;;;1.00;;
36009;SDS011;22076;52.182;5.404;2023-07-31T00:13:30;5.10;;;1.40;;
36009;SDS011;22076;52.182;5.404;2023-07-31T00:15:57;4.80;;;1.00;;
36009;SDS011;22076;52.182;5.404;2023-07-31T00:18:23;2.10;;;1.00;;
36009;SDS011;22076;52.182;5.404;2023-07-31T00:20:50;4.53;;;1.10;;
36009;SDS011;22076;52.182;5.404;2023-07-31T00:23:17;2.25;;;0.90;;
36009;SDS011;22076;52.182;5.404;2023-07-31T00:25:43;2.72;;;0.90;;
36009;SDS011;22076;52.182;5.404;2023-07-31T00:28:11;5.00;;;1.00;;
36009;SDS011;22076;52.182;5.404;2023-07-31T00:30:37;4.75;;;1.10;;
36009;SDS011;22076;52.182;5.404;2023-07-31T00:33:04;1.52;;;1.00;;
36009;SDS011;22076;52.182;5.404;2023-07-31T00:35:31;3.17;;;0.75;;
36009;SDS011;22076;52.182;5.404;2023-07-31T00:37:57;5.05;;;1.48;;
36009;SDS011;22076;52.182;5.404;2023-07-31T00:40:24;1.98;;;1.15;;
36009;SDS011;22076;52.182;5.404;2023-07-31T00:42:51;4.32;;;1.40;;
36009;SDS011;22076;52.182;5.404;2023-07-31T00:45:19;7.05;;;2.25;;
36009;SDS011;22076;52.182;5.404;2023-07-31T00:47:48;5.13;;;2.20;;
36009;SDS011;22076;52.182;5.404;2023-07-31T00:50:15;5.45;;;2.03;;
36009;SDS011;22076;52.182;5.404;2023-07-31T00:52:41;2.10;;;1.10;;
36009;SDS011;22076;52.182;5.404;2023-07-31T00:55:08;6.45;;;1.98;;
36009;SDS011;22076;52.182;5.404;2023-07-31T00:57:35;9.38;;;3.00;;
36009;SDS011;22076;52.182;5.404;2023-07-31T01:00:03;3.65;;;1.20;;
36009;SDS011;22076;52.182;5.404;2023-07-31T01:02:31;8.52;;;2.30;;
36009;SDS011;22076;52.182;5.404;2023-07-31T01:04:58;7.88;;;2.30;;
36009;SDS011;22076;52.182;5.404;2023-07-31T01:07:26;5.53;;;1.80;;
36009;SDS011;22076;52.182;5.404;2023-07-31T01:10:02;5.00;;;2.15;;
36009;SDS011;22076;52.182;5.404;2023-07-31T01:12:32;6.40;;;2.13;;
36009;SDS011;22076;52.182;5.404;2023-07-31T01:15:04;3.83;;;2.20;;
36009;SDS011;22076;52.182;5.404;2023-07-31T01:17:32;7.63;;;2.10;;
36009;SDS011;22076;52.182;5.404;2023-07-31T01:19:59;7.63;;;2.47;;
36009;SDS011;22076;52.182;5.404;2023-07-31T01:22:33;4.35;;;2.38;;
36009;SDS011;22076;52.182;5.404;2023-07-31T01:25:13;5.10;;;1.55;;
36009;SDS011;22076;52.182;5.404;2023-07-31T01:27:47;6.25;;;2.70;;
36009;SDS011;22076;52.182;5.404;2023-07-31T01:30:19;5.13;;;2.35;;
36009;SDS011;22076;52.182;5.404;2023-07-31T01:32:48;9.32;;;2.55;;
36009;SDS011;22076;52.182;5.404;2023-07-31T01:35:16;7.45;;;2.97;;
36009;SDS011;22076;52.182;5.404;2023-07-31T01:37:42;3.42;;;2.17;;
36009;SDS011;22076;52.182;5.404;2023-07-31T01:40:10;9.15;;;2.28;;
36009;SDS011;22076;52.182;5.404;2023-07-31T01:42:36;3.35;;;1.90;;
36009;SDS011;22076;52.182;5.404;2023-07-31T01:45:05;4.18;;;1.88;;
36009;SDS011;22076;52.182;5.404;2023-07-31T01:47:32;4.43;;;2.00;;
36009;SDS011;22076;52.182;5.404;2023-07-31T01:49:59;4.32;;;2.30;;
36009;SDS011;22076;52.182;5.404;2023-07-31T01:52:25;6.00;;;2.30;;
36009;SDS011;22076;52.182;5.404;2023-07-31T01:54:52;5.93;;;2.22;;
36009;SDS011;22076;52.182;5.404;2023-07-31T01:57:18;7.00;;;2.63;;
36009;SDS011;22076;52.182;5.404;2023-07-31T01:59:45;6.43;;;2.53;;
36009;SDS011;22076;52.182;5.404;2023-07-31T02:02:13;9.23;;;3.17;;
36009;SDS011;22076;52.182;5.404;2023-07-31T02:04:40;12.43;;;3.65;;
36009;SDS011;22076;52.182;5.404;2023-07-31T02:07:07;6.55;;;2.95;;
36009;SDS011;22076;52.182;5.404;2023-07-31T02:09:33;18.60;;;3.67;;
36009;SDS011;22076;52.182;5.404;2023-07-31T02:12:00;12.20;;;3.95;;
36009;SDS011;22076;52.182;5.404;2023-07-31T02:14:26;10.27;;;4.25;;
36009;SDS011;22076;52.182;5.404;2023-07-31T02:16:53;26.33;;;6.53;;
36009;SDS011;22076;52.182;5.404;2023-07-31T02:19:21;12.27;;;4.47;;
36009;SDS011;22076;52.182;5.404;2023-07-31T02:21:48;12.93;;;3.55;;
36009;SDS011;22076;52.182;5.404;2023-07-31T02:24:14;9.25;;;3.65;;
36009;SDS011;22076;52.182;5.404;2023-07-31T02:26:41;13.77;;;4.80;;
36009;SDS011;22076;52.182;5.404;2023-07-31T02:29:08;13.75;;;4.00;;
36009;SDS011;22076;52.182;5.404;2023-07-31T02:31:34;9.50;;;3.83;;
36009;SDS011;22076;52.182;5.404;2023-07-31T02:34:01;12.50;;;4.35;;
36009;SDS011;22076;52.182;5.404;2023-07-31T02:36:29;15.07;;;3.88;;
36009;SDS011;22076;52.182;5.404;2023-07-31T02:38:55;9.70;;;3.60;;
36009;SDS011;22076;52.182;5.404;2023-07-31T02:41:21;15.75;;;5.45;;
36009;SDS011;22076;52.182;5.404;2023-07-31T02:43:48;14.23;;;4.43;;
36009;SDS011;22076;52.182;5.404;2023-07-31T02:46:14;15.68;;;4.88;;
36009;SDS011;22076;52.182;5.404;2023-07-31T02:48:41;20.10;;;5.20;;
36009;SDS011;22076;52.182;5.404;2023-07-31T02:51:07;10.52;;;4.20;;
36009;SDS011;22076;52.182;5.404;2023-07-31T02:53:35;17.88;;;4.93;;
36009;SDS011;22076;52.182;5.404;2023-07-31T02:56:02;22.77;;;5.22;;
36009;SDS011;22076;52.182;5.404;2023-07-31T02:58:29;11.75;;;4.38;;
36009;SDS011;22076;52.182;5.404;2023-07-31T03:00:57;11.18;;;3.90;;
36009;SDS011;22076;52.182;5.404;2023-07-31T03:03:24;12.00;;;4.40;;
36009;SDS011;22076;52.182;5.404;2023-07-31T03:05:50;8.50;;;3.83;;
36009;SDS011;22076;52.182;5.404;2023-07-31T03:08:18;18.58;;;5.53;;
36009;SDS011;22076;52.182;5.404;2023-07-31T03:10:45;10.38;;;4.72;;
36009;SDS011;22076;52.182;5.404;2023-07-31T03:13:12;18.73;;;5.13;;
36009;SDS011;22076;52.182;5.404;2023-07-31T03:15:41;20.23;;;4.75;;
36009;SDS011;22076;52.182;5.404;2023-07-31T03:18:08;12.38;;;4.13;;
36009;SDS011;22076;52.182;5.404;2023-07-31T03:20:34;20.88;;;5.75;;
36009;SDS011;22076;52.182;5.404;2023-07-31T03:23:01;24.52;;;8.55;;
36009;SDS011;22076;52.182;5.404;2023-07-31T03:25:27;30.40;;;6.65;;
36009;SDS011;22076;52.182;5.404;2023-07-31T03:27:55;26.08;;;5.97;;
36009;SDS011;22076;52.182;5.404;2023-07-31T03:30:22;18.52;;;6.30;;
36009;SDS011;22076;52.182;5.404;2023-07-31T03:32:48;21.20;;;5.97;;
36009;SDS011;22076;52.182;5.404;2023-07-31T03:35:15;14.13;;;5.30;;
36009;SDS011;22076;52.182;5.404;2023-07-31T03:37:41;23.35;;;6.45;;
36009;SDS011;22076;52.182;5.404;2023-07-31T03:40:09;17.95;;;5.85;;
36009;SDS011;22076;52.182;5.404;2023-07-31T03:42:36;19.38;;;5.82;;
36009;SDS011;22076;52.182;5.404;2023-07-31T03:45:05;15.25;;;5.95;;
36009;SDS011;22076;52.182;5.404;2023-07-31T03:47:33;20.77;;;6.60;;
36009;SDS011;22076;52.182;5.404;2023-07-31T03:49:59;23.85;;;7.15;;
36009;SDS011;22076;52.182;5.404;2023-07-31T03:52:26;18.52;;;5.78;;
36009;SDS011;22076;52.182;5.404;2023-07-31T03:54:54;17.65;;;5.88;;
36009;SDS011;22076;52.182;5.404;2023-07-31T03:57:20;15.85;;;5.68;;
36009;SDS011;22076;52.182;5.404;2023-07-31T03:59:47;16.30;;;6.28;;
36009;SDS011;22076;52.182;5.404;2023-07-31T04:02:15;19.58;;;5.93;;
36009;SDS011;22076;52.182;5.404;2023-07-31T04:04:43;15.38;;;4.85;;
36009;SDS011;22076;52.182;5.404;2023-07-31T04:07:10;21.00;;;6.88;;
36009;SDS011;22076;52.182;5.404;2023-07-31T04:09:37;16.27;;;5.47;;
36009;SDS011;22076;52.182;5.404;2023-07-31T04:12:03;20.75;;;6.63;;
36009;SDS011;22076;52.182;5.404;2023-07-31T04:14:30;30.33;;;8.80;;
36009;SDS011;22076;52.182;5.404;2023-07-31T04:16:57;19.65;;;5.85;;
36009;SDS011;22076;52.182;5.404;2023-07-31T04:19:25;21.27;;;7.15;;
36009;SDS011;22076;52.182;5.404;2023-07-31T04:21:51;26.88;;;7.95;;
36009;SDS011;22076;52.182;5.404;2023-07-31T04:24:18;20.95;;;7.90;;
36009;SDS011;22076;52.182;5.404;2023-07-31T04:26:49;28.83;;;8.90;;
36009;SDS011;22076;52.182;5.404;2023-07-31T04:29:16;26.98;;;10.00;;
36009;SDS011;22076;52.182;5.404;2023-07-31T04:31:42;15.27;;;5.25;;
36009;SDS011;22076;52.182;5.404;2023-07-31T04:34:09;30.38;;;8.77;;
36009;SDS011;22076;52.182;5.404;2023-07-31T04:36:37;26.55;;;7.40;;
36009;SDS011;22076;52.182;5.404;2023-07-31T04:39:04;31.73;;;8.73;;
36009;SDS011;22076;52.182;5.404;2023-07-31T04:41:30;20.65;;;6.80;;
36009;SDS011;22076;52.182;5.404;2023-07-31T04:43:57;19.20;;;6.60;;
36009;SDS011;22076;52.182;5.404;2023-07-31T04:46:24;18.75;;;5.88;;
36009;SDS011;22076;52.182;5.404;2023-07-31T04:48:50;17.90;;;6.97;;
36009;SDS011;22076;52.182;5.404;2023-07-31T04:51:17;22.20;;;7.18;;
36009;SDS011;22076;52.182;5.404;2023-07-31T04:53:45;15.32;;;5.50;;
36009;SDS011;22076;52.182;5.404;2023-07-31T04:56:11;16.30;;;5.60;;
36009;SDS011;22076;52.182;5.404;2023-07-31T04:58:39;21.48;;;6.70;;
36009;SDS011;22076;52.182;5.404;2023-07-31T05:01:05;18.83;;;6.93;;
36009;SDS011;22076;52.182;5.404;2023-07-31T05:03:32;20.45;;;7.63;;
36009;SDS011;22076;52.182;5.404;2023-07-31T05:05:58;23.50;;;7.07;;
36009;SDS011;22076;52.182;5.404;2023-07-31T05:08:25;16.95;;;5.78;;
36009;SDS011;22076;52.182;5.404;2023-07-31T05:10:53;23.70;;;7.65;;
36009;SDS011;22076;52.182;5.404;2023-07-31T05:13:20;13.98;;;5.45;;
36009;SDS011;22076;52.182;5.404;2023-07-31T05:15:46;16.70;;;6.32;;
36009;SDS011;22076;52.182;5.404;2023-07-31T05:18:14;13.18;;;5.18;;
36009;SDS011;22076;52.182;5.404;2023-07-31T05:20:41;10.75;;;4.63;;
36009;SDS011;22076;52.182;5.404;2023-07-31T05:23:07;17.98;;;5.80;;
36009;SDS011;22076;52.182;5.404;2023-07-31T05:25:34;16.80;;;5.25;;
36009;SDS011;22076;52.182;5.404;2023-07-31T05:28:02;11.52;;;4.75;;
36009;SDS011;22076;52.182;5.404;2023-07-31T05:30:29;11.10;;;4.70;;
36009;SDS011;22076;52.182;5.404;2023-07-31T05:32:56;15.48;;;5.25;;
36009;SDS011;22076;52.182;5.404;2023-07-31T05:35:22;16.42;;;5.07;;
36009;SDS011;22076;52.182;5.404;2023-07-31T05:37:49;12.85;;;4.85;;
36009;SDS011;22076;52.182;5.404;2023-07-31T05:40:15;13.35;;;5.53;;
36009;SDS011;22076;52.182;5.404;2023-07-31T05:42:42;11.38;;;4.97;;
36009;SDS011;22076;52.182;5.404;2023-07-31T05:45:10;14.23;;;4.93;;
36009;SDS011;22076;52.182;5.404;2023-07-31T05:47:38;13.13;;;4.70;;
36009;SDS011;22076;52.182;5.404;2023-07-31T05:50:05;10.05;;;4.15;;
36009;SDS011;22076;52.182;5.404;2023-07-31T05:52:32;9.50;;;3.67;;
36009;SDS011;22076;52.182;5.404;2023-07-31T05:54:58;9.38;;;3.95;;
36009;SDS011;22076;52.182;5.404;2023-07-31T05:57:25;10.45;;;3.55;;
36009;SDS011;22076;52.182;5.404;2023-07-31T05:59:52;9.52;;;3.42;;
36009;SDS011;22076;52.182;5.404;2023-07-31T06:02:21;8.48;;;3.72;;
36009;SDS011;22076;52.182;5.404;2023-07-31T06:04:48;9.98;;;4.32;;
36009;SDS011;22076;52.182;5.404;2023-07-31T06:07:14;9.98;;;4.65;;
36009;SDS011;22076;52.182;5.404;2023-07-31T06:09:41;9.43;;;4.10;;
36009;SDS011;22076;52.182;5.404;2023-07-31T06:12:07;12.13;;;4.53;;
36009;SDS011;22076;52.182;5.404;2023-07-31T06:14:35;9.10;;;4.82;;
36009;SDS011;22076;52.182;5.404;2023-07-31T06:17:01;12.50;;;5.38;;
36009;SDS011;22076;52.182;5.404;2023-07-31T06:19:29;9.05;;;4.03;;
36009;SDS011;22076;52.182;5.404;2023-07-31T06:21:56;10.13;;;4.75;;
36009;SDS011;22076;52.182;5.404;2023-07-31T06:24:22;9.10;;;3.97;;
36009;SDS011;22076;52.182;5.404;2023-07-31T06:26:49;9.57;;;5.07;;
36009;SDS011;22076;52.182;5.404;2023-07-31T06:29:16;8.70;;;3.85;;
36009;SDS011;22076;52.182;5.404;2023-07-31T06:31:43;12.38;;;4.35;;
36009;SDS011;22076;52.182;5.404;2023-07-31T06:34:10;13.48;;;4.82;;
36009;SDS011;22076;52.182;5.404;2023-07-31T06:36:38;9.65;;;3.90;;
36009;SDS011;22076;52.182;5.404;2023-07-31T06:39:04;7.38;;;3.67;;
36009;SDS011;22076;52.182;5.404;2023-07-31T06:41:31;8.98;;;4.47;;
36009;SDS011;22076;52.182;5.404;2023-07-31T06:43:57;11.63;;;5.25;;
36009;SDS011;22076;52.182;5.404;2023-07-31T06:46:24;9.30;;;4.28;;
36009;SDS011;22076;52.182;5.404;2023-07-31T06:48:51;8.57;;;3.90;;
36009;SDS011;22076;52.182;5.404;2023-07-31T06:51:17;9.27;;;3.92;;
36009;SDS011;22076;52.182;5.404;2023-07-31T06:53:45;10.18;;;4.03;;
36009;SDS011;22076;52.182;5.404;2023-07-31T06:56:12;5.90;;;3.60;;
36009;SDS011;22076;52.182;5.404;2023-07-31T06:58:39;7.45;;;3.15;;
36009;SDS011;22076;52.182;5.404;2023-07-31T07:01:05;5.22;;;3.25;;
36009;SDS011;22076;52.182;5.404;2023-07-31T07:03:32;6.43;;;3.47;;
36009;SDS011;22076;52.182;5.404;2023-07-31T07:05:58;6.57;;;3.60;;
36009;SDS011;22076;52.182;5.404;2023-07-31T07:08:25;7.72;;;3.15;;
36009;SDS011;22076;52.182;5.404;2023-07-31T07:10:53;5.18;;;2.45;;
36009;SDS011;22076;52.182;5.404;2023-07-31T07:13:20;6.60;;;2.65;;
36009;SDS011;22076;52.182;5.404;2023-07-31T07:15:47;6.47;;;3.05;;
36009;SDS011;22076;52.182;5.404;2023-07-31T07:18:15;4.63;;;2.40;;
36009;SDS011;22076;52.182;5.404;2023-07-31T07:20:46;6.40;;;2.90;;
36009;SDS011;22076;52.182;5.404;2023-07-31T07:23:12;4.97;;;2.95;;
36009;SDS011;22076;52.182;5.404;2023-07-31T07:25:39;5.45;;;2.92;;
36009;SDS011;22076;52.182;5.404;2023-07-31T07:28:07;7.20;;;2.80;;
36009;SDS011;22076;52.182;5.404;2023-07-31T07:30:34;7.47;;;2.80;;
36009;SDS011;22076;52.182;5.404;2023-07-31T07:33:00;5.03;;;2.95;;
36009;SDS011;22076;52.182;5.404;2023-07-31T07:35:27;5.18;;;2.55;;
36009;SDS011;22076;52.182;5.404;2023-07-31T07:37:54;7.30;;;2.70;;
36009;SDS011;22076;52.182;5.404;2023-07-31T07:40:22;5.15;;;2.60;;
36009;SDS011;22076;52.182;5.404;2023-07-31T07:42:49;4.35;;;2.20;;
36009;SDS011;22076;52.182;5.404;2023-07-31T07:45:17;5.22;;;2.83;;
36009;SDS011;22076;52.182;5.404;2023-07-31T07:47:44;5.18;;;2.78;;
36009;SDS011;22076;52.182;5.404;2023-07-31T07:50:10;3.63;;;2.53;;
36009;SDS011;22076;52.182;5.404;2023-07-31T07:52:37;4.88;;;2.17;;
36009;SDS011;22076;52.182;5.404;2023-07-31T07:55:04;3.67;;;2.17;;
36009;SDS011;22076;52.182;5.404;2023-07-31T07:57:31;3.55;;;2.40;;
36009;SDS011;22076;52.182;5.404;2023-07-31T07:59:57;5.55;;;1.92;;
36009;SDS011;22076;52.182;5.404;2023-07-31T08:02:25;3.83;;;2.10;;
36009;SDS011;22076;52.182;5.404;2023-07-31T08:04:52;5.07;;;2.42;;
36009;SDS011;22076;52.182;5.404;2023-07-31T08:07:19;4.88;;;2.50;;
36009;SDS011;22076;52.182;5.404;2023-07-31T08:09:45;3.50;;;1.95;;
36009;SDS011;22076;52.182;5.404;2023-07-31T08:12:12;4.78;;;2.67;;
36009;SDS011;22076;52.182;5.404;2023-07-31T08:14:38;4.10;;;1.83;;
36009;SDS011;22076;52.182;5.404;2023-07-31T08:17:05;3.70;;;1.63;;
36009;SDS011;22076;52.182;5.404;2023-07-31T08:19:33;2.40;;;1.63;;
36009;SDS011;22076;52.182;5.404;2023-07-31T08:21:59;3.88;;;2.22;;
36009;SDS011;22076;52.182;5.404;2023-07-31T08:24:26;3.08;;;1.88;;
36009;SDS011;22076;52.182;5.404;2023-07-31T08:26:52;2.15;;;1.42;;
36009;SDS011;22076;52.182;5.404;2023-07-31T08:29:19;4.50;;;1.70;;
36009;SDS011;22076;52.182;5.404;2023-07-31T08:31:45;3.38;;;1.90;;
36009;SDS011;22076;52.182;5.404;2023-07-31T08:34:12;5.35;;;1.88;;
36009;SDS011;22076;52.182;5.404;2023-07-31T08:36:40;3.28;;;1.85;;
36009;SDS011;22076;52.182;5.404;2023-07-31T08:39:06;3.22;;;1.40;;
36009;SDS011;22076;52.182;5.404;2023-07-31T08:41:37;2.50;;;1.77;;
36009;SDS011;22076;52.182;5.404;2023-07-31T08:44:03;3.85;;;1.52;;
36009;SDS011;22076;52.182;5.404;2023-07-31T08:46:30;2.08;;;1.33;;
36009;SDS011;22076;52.182;5.404;2023-07-31T08:48:57;1.63;;;1.42;;
36009;SDS011;22076;52.182;5.404;2023-07-31T08:51:24;1.63;;;1.30;;
36009;SDS011;22076;52.182;5.404;2023-07-31T08:53:53;3.33;;;1.50;;
36009;SDS011;22076;52.182;5.404;2023-07-31T08:56:20;3.15;;;1.30;;
36009;SDS011;22076;52.182;5.404;2023-07-31T08:58:47;3.58;;;1.75;;
36009;SDS011;22076;52.182;5.404;2023-07-31T09:01:14;3.35;;;1.38;;
36009;SDS011;22076;52.182;5.404;2023-07-31T09:03:41;2.03;;;1.33;;
36009;SDS011;22076;52.182;5.404;2023-07-31T09:06:08;3.28;;;1.38;;
36009;SDS011;22076;52.182;5.404;2023-07-31T09:08:35;2.15;;;1.30;;
36009;SDS011;22076;52.182;5.404;2023-07-31T09:11:05;1.65;;;1.05;;
36009;SDS011;22076;52.182;5.404;2023-07-31T09:13:32;2.72;;;1.13;;
36009;SDS011;22076;52.182;5.404;2023-07-31T09:15:59;1.65;;;1.25;;
36009;SDS011;22076;52.182;5.404;2023-07-31T09:18:25;2.78;;;1.60;;
36009;SDS011;22076;52.182;5.404;2023-07-31T09:21:01;3.53;;;1.50;;
36009;SDS011;22076;52.182;5.404;2023-07-31T09:23:39;1.80;;;1.02;;
36009;SDS011;22076;52.182;5.404;2023-07-31T09:26:08;1.83;;;1.15;;
36009;SDS011;22076;52.182;5.404;2023-07-31T09:28:35;2.58;;;0.93;;
36009;SDS011;22076;52.182;5.404;2023-07-31T09:31:01;1.45;;;1.00;;
36009;SDS011;22076;52.182;5.404;2023-07-31T09:33:28;1.38;;;1.08;;
36009;SDS011;22076;52.182;5.404;2023-07-31T09:35:56;1.20;;;1.08;;
36009;SDS011;22076;52.182;5.404;2023-07-31T09:38:24;1.95;;;1.13;;
36009;SDS011;22076;52.182;5.404;2023-07-31T09:40:51;2.47;;;1.48;;
36009;SDS011;22076;52.182;5.404;2023-07-31T09:43:20;2.33;;;1.35;;
36009;SDS011;22076;52.182;5.404;2023-07-31T09:45:47;1.70;;;1.27;;
36009;SDS011;22076;52.182;5.404;2023-07-31T09:48:15;1.95;;;1.38;;
36009;SDS011;22076;52.182;5.404;2023-07-31T09:50:43;2.35;;;1.23;;
36009;SDS011;22076;52.182;5.404;2023-07-31T09:53:10;1.83;;;1.30;;
36009;SDS011;22076;52.182;5.404;2023-07-31T09:55:37;3.72;;;1.60;;
36009;SDS011;22076;52.182;5.404;2023-07-31T09:58:05;1.70;;;1.50;;
36009;SDS011;22076;52.182;5.404;2023-07-31T10:00:33;2.38;;;1.80;;
36009;SDS011;22076;52.182;5.404;2023-07-31T10:03:01;2.88;;;1.52;;
36009;SDS011;22076;52.182;5.404;2023-07-31T10:05:30;1.35;;;1.25;;
36009;SDS011;22076;52.182;5.404;2023-07-31T10:07:57;2.20;;;1.23;;
36009;SDS011;22076;52.182;5.404;2023-07-31T10:10:24;1.42;;;1.10;;
36009;SDS011;22076;52.182;5.404;2023-07-31T10:12:51;2.38;;;1.38;;
36009;SDS011;22076;52.182;5.404;2023-07-31T10:15:18;2.00;;;1.45;;
36009;SDS011;22076;52.182;5.404;2023-07-31T10:17:47;2.78;;;1.95;;
36009;SDS011;22076;52.182;5.404;2023-07-31T10:20:14;2.15;;;1.75;;
36009;SDS011;22076;52.182;5.404;2023-07-31T10:22:44;2.28;;;1.70;;
36009;SDS011;22076;52.182;5.404;2023-07-31T10:25:12;1.60;;;1.20;;
36009;SDS011;22076;52.182;5.404;2023-07-31T10:27:39;2.35;;;1.58;;
36009;SDS011;22076;52.182;5.404;2023-07-31T10:30:07;2.72;;;1.50;;
36009;SDS011;22076;52.182;5.404;2023-07-31T10:32:37;2.08;;;1.65;;
36009;SDS011;22076;52.182;5.404;2023-07-31T10:35:06;1.73;;;1.42;;
36009;SDS011;22076;52.182;5.404;2023-07-31T10:37:36;2.28;;;1.88;;
36009;SDS011;22076;52.182;5.404;2023-07-31T10:40:04;3.85;;;1.95;;
36009;SDS011;22076;52.182;5.404;2023-07-31T10:42:32;3.08;;;2.17;;
36009;SDS011;22076;52.182;5.404;2023-07-31T10:45:00;3.83;;;2.60;;
36009;SDS011;22076;52.182;5.404;2023-07-31T10:47:28;5.70;;;3.50;;
36009;SDS011;22076;52.182;5.404;2023-07-31T10:52:47;4.20;;;2.75;;
36009;SDS011;22076;52.182;5.404;2023-07-31T10:55:15;4.95;;;3.13;;
36009;SDS011;22076;52.182;5.404;2023-07-31T10:57:50;4.82;;;3.55;;
36009;SDS011;22076;52.182;5.404;2023-07-31T11:00:17;3.85;;;2.55;;
36009;SDS011;22076;52.182;5.404;2023-07-31T11:02:55;4.70;;;3.13;;
36009;SDS011;22076;52.182;5.404;2023-07-31T11:05:32;5.97;;;3.65;;
36009;SDS011;22076;52.182;5.404;2023-07-31T11:08:11;4.70;;;2.80;;
36009;SDS011;22076;52.182;5.404;2023-07-31T11:10:38;5.38;;;3.05;;
36009;SDS011;22076;52.182;5.404;2023-07-31T11:13:05;4.28;;;2.75;;
36009;SDS011;22076;52.182;5.404;2023-07-31T11:15:32;4.05;;;3.00;;
36009;SDS011;22076;52.182;5.404;2023-07-31T11:17:59;3.03;;;2.63;;
36009;SDS011;22076;52.182;5.404;2023-07-31T11:20:29;3.78;;;2.45;;
36009;SDS011;22076;52.182;5.404;2023-07-31T11:22:59;4.32;;;2.95;;
36009;SDS011;22076;52.182;5.404;2023-07-31T11:25:26;3.78;;;2.90;;
36009;SDS011;22076;52.182;5.404;2023-07-31T11:27:55;3.70;;;2.63;;
36009;SDS011;22076;52.182;5.404;2023-07-31T11:30:22;3.88;;;3.13;;
36009;SDS011;22076;52.182;5.404;2023-07-31T11:32:48;3.15;;;2.72;;
36009;SDS011;22076;52.182;5.404;2023-07-31T11:35:16;3.97;;;3.25;;
36009;SDS011;22076;52.182;5.404;2023-07-31T11:37:43;3.25;;;2.47;;
36009;SDS011;22076;52.182;5.404;2023-07-31T11:40:12;3.05;;;1.80;;
36009;SDS011;22076;52.182;5.404;2023-07-31T11:42:38;7.28;;;3.05;;
36009;SDS011;22076;52.182;5.404;2023-07-31T11:45:05;2.47;;;2.10;;
36009;SDS011;22076;52.182;5.404;2023-07-31T11:47:33;4.95;;;2.60;;
36009;SDS011;22076;52.182;5.404;2023-07-31T11:50:00;5.20;;;2.58;;
36009;SDS011;22076;52.182;5.404;2023-07-31T11:52:27;3.53;;;1.98;;
36009;SDS011;22076;52.182;5.404;2023-07-31T11:54:55;3.92;;;2.20;;
36009;SDS011;22076;52.182;5.404;2023-07-31T11:57:23;3.70;;;1.90;;
36009;SDS011;22076;52.182;5.404;2023-07-31T11:59:50;3.25;;;2.20;;
36009;SDS011;22076;52.182;5.404;2023-07-31T12:02:17;2.75;;;1.98;;
36009;SDS011;22076;52.182;5.404;2023-07-31T12:04:45;4.63;;;2.80;;
36009;SDS011;22076;52.182;5.404;2023-07-31T12:07:11;3.65;;;2.05;;
36009;SDS011;22076;52.182;5.404;2023-07-31T12:09:38;3.53;;;2.25;;
36009;SDS011;22076;52.182;5.404;2023-07-31T12:12:07;5.47;;;3.15;;
36009;SDS011;22076;52.182;5.404;2023-07-31T12:14:36;5.38;;;3.03;;
36009;SDS011;22076;52.182;5.404;2023-07-31T12:17:07;5.85;;;2.60;;
36009;SDS011;22076;52.182;5.404;2023-07-31T12:19:34;4.47;;;2.40;;
36009;SDS011;22076;52.182;5.404;2023-07-31T12:22:01;5.63;;;2.83;;
36009;SDS011;22076;52.182;5.404;2023-07-31T12:24:28;4.32;;;2.78;;
36009;SDS011;22076;52.182;5.404;2023-07-31T12:26:55;5.20;;;3.33;;
36009;SDS011;22076;52.182;5.404;2023-07-31T12:29:21;3.80;;;2.75;;
36009;SDS011;22076;52.182;5.404;2023-07-31T12:31:49;4.63;;;3.05;;
36009;SDS011;22076;52.182;5.404;2023-07-31T12:34:16;4.03;;;3.28;;
36009;SDS011;22076;52.182;5.404;2023-07-31T12:36:43;4.55;;;3.20;;
36009;SDS011;22076;52.182;5.404;2023-07-31T12:39:10;3.53;;;3.10;;
36009;SDS011;22076;52.182;5.404;2023-07-31T12:41:37;3.80;;;2.95;;
36009;SDS011;22076;52.182;5.404;2023-07-31T12:44:03;5.65;;;2.90;;
36009;SDS011;22076;52.182;5.404;2023-07-31T12:46:30;4.85;;;2.20;;
36009;SDS011;22076;52.182;5.404;2023-07-31T12:48:58;2.92;;;2.30;;
36009;SDS011;22076;52.182;5.404;2023-07-31T12:51:24;3.88;;;2.35;;
36009;SDS011;22076;52.182;5.404;2023-07-31T12:53:51;5.38;;;2.97;;
36009;SDS011;22076;52.182;5.404;2023-07-31T12:56:18;4.05;;;2.42;;
36009;SDS011;22076;52.182;5.404;2023-07-31T12:58:44;4.07;;;3.10;;
36009;SDS011;22076;52.182;5.404;2023-07-31T13:01:11;3.83;;;2.80;;
36009;SDS011;22076;52.182;5.404;2023-07-31T13:03:37;3.47;;;2.92;;
36009;SDS011;22076;52.182;5.404;2023-07-31T13:06:05;4.90;;;3.45;;
36009;SDS011;22076;52.182;5.404;2023-07-31T13:08:32;4.75;;;2.78;;
36009;SDS011;22076;52.182;5.404;2023-07-31T13:10:58;3.80;;;3.08;;
36009;SDS011;22076;52.182;5.404;2023-07-31T13:13:25;8.52;;;3.10;;
36009;SDS011;22076;52.182;5.404;2023-07-31T13:15:51;4.53;;;3.65;;
36009;SDS011;22076;52.182;5.404;2023-07-31T13:18:18;2.67;;;2.28;;
36009;SDS011;22076;52.182;5.404;2023-07-31T13:20:44;5.45;;;3.50;;
36009;SDS011;22076;52.182;5.404;2023-07-31T13:23:12;4.20;;;2.58;;
36009;SDS011;22076;52.182;5.404;2023-07-31T13:25:39;4.00;;;2.22;;
36009;SDS011;22076;52.182;5.404;2023-07-31T13:28:05;3.65;;;2.67;;
36009;SDS011;22076;52.182;5.404;2023-07-31T13:30:32;3.95;;;2.67;;
36009;SDS011;22076;52.182;5.404;2023-07-31T13:32:59;2.67;;;2.38;;
36009;SDS011;22076;52.182;5.404;2023-07-31T13:35:26;4.20;;;2.38;;
36009;SDS011;22076;52.182;5.404;2023-07-31T13:37:52;5.63;;;3.03;;
36009;SDS011;22076;52.182;5.404;2023-07-31T13:40:20;3.63;;;2.25;;
36009;SDS011;22076;52.182;5.404;2023-07-31T13:42:48;5.63;;;3.67;;
36009;SDS011;22076;52.182;5.404;2023-07-31T13:45:14;3.22;;;2.22;;
36009;SDS011;22076;52.182;5.404;2023-07-31T13:47:41;3.90;;;2.67;;
36009;SDS011;22076;52.182;5.404;2023-07-31T13:50:08;3.63;;;2.25;;
36009;SDS011;22076;52.182;5.404;2023-07-31T13:52:35;4.55;;;2.28;;
36009;SDS011;22076;52.182;5.404;2023-07-31T13:55:01;3.00;;;1.92;;
36009;SDS011;22076;52.182;5.404;2023-07-31T13:57:29;4.28;;;2.70;;
36009;SDS011;22076;52.182;5.404;2023-07-31T13:59:56;3.63;;;1.85;;
36009;SDS011;22076;52.182;5.404;2023-07-31T14:02:23;1.92;;;1.70;;
36009;SDS011;22076;52.182;5.404;2023-07-31T14:04:49;2.00;;;1.33;;
36009;SDS011;22076;52.182;5.404;2023-07-31T14:07:16;1.77;;;1.33;;
36009;SDS011;22076;52.182;5.404;2023-07-31T14:09:43;1.98;;;1.30;;
36009;SDS011;22076;52.182;5.404;2023-07-31T14:12:10;1.50;;;1.27;;
36009;SDS011;22076;52.182;5.404;2023-07-31T14:14:38;3.45;;;1.33;;
36009;SDS011;22076;52.182;5.404;2023-07-31T14:17:05;2.47;;;1.42;;
36009;SDS011;22076;52.182;5.404;2023-07-31T14:19:31;1.60;;;1.20;;
36009;SDS011;22076;52.182;5.404;2023-07-31T14:21:58;2.30;;;0.88;;
36009;SDS011;22076;52.182;5.404;2023-07-31T14:24:25;1.80;;;1.20;;
36009;SDS011;22076;52.182;5.404;2023-07-31T14:26:51;1.75;;;1.15;;
36009;SDS011;22076;52.182;5.404;2023-07-31T14:29:18;1.52;;;1.40;;
36009;SDS011;22076;52.182;5.404;2023-07-31T14:31:46;1.95;;;1.20;;
36009;SDS011;22076;52.182;5.404;2023-07-31T14:34:12;2.78;;;1.55;;
36009;SDS011;22076;52.182;5.404;2023-07-31T14:36:39;2.67;;;1.45;;
36009;SDS011;22076;52.182;5.404;2023-07-31T14:39:06;3.28;;;1.40;;
36009;SDS011;22076;52.182;5.404;2023-07-31T14:41:32;5.53;;;2.20;;
36009;SDS011;22076;52.182;5.404;2023-07-31T14:43:59;3.67;;;2.33;;
36009;SDS011;22076;52.182;5.404;2023-07-31T14:46:25;3.20;;;2.08;;